KLPC/LPC METAR and TAF weather

Enter ICAO airport designator
Station Type Date Time Source
KLPC METAR 2020/09/22 16:56 UTC NOAA

KLPC 221656Z AUTO 00000KT 9SM OVC005 14/13 A3007 RMK AO2 SLP184 T01440128


Station Type Date Time Source
KLPC Decoded METAR 2020/09/22 16:56 UTC NOAA

Lompoc, Lompoc Airport, CA, United States (KLPC) 34-40N 120-28W
Sep 22, 2020 - 12:56 PM EDT / 2020.09.22 1656 UTC
Wind: Calm:0
Visibility: 9 mile(s):0
Sky conditions: overcast
Temperature: 57.9 F (14.4 C)
Dew Point: 55.0 F (12.8 C)
Relative Humidity: 90%
Pressure (altimeter): 30.07 in. Hg (1018 hPa)
ob: KLPC 221656Z AUTO 00000KT 9SM OVC005 14/13 A3007 RMK AO2 SLP184 T01440128
cycle: 17

Station Type Date Time Source
KLPC TAF UTC NOAA

Error!

Example: see airport list